sensor_id;sensor_type;location;lat;lon;timestamp;temperature;humidity
51567;DHT22;37657;53.182;5.638;2023-07-13T00:00:30;17.30;99.90
51567;DHT22;37657;53.182;5.638;2023-07-13T00:02:57;17.20;99.90
51567;DHT22;37657;53.182;5.638;2023-07-13T00:05:23;17.20;99.90
51567;DHT22;37657;53.182;5.638;2023-07-13T00:07:50;17.20;99.90
51567;DHT22;37657;53.182;5.638;2023-07-13T00:10:16;17.20;99.90
51567;DHT22;37657;53.182;5.638;2023-07-13T00:12:43;17.20;99.90
51567;DHT22;37657;53.182;5.638;2023-07-13T00:15:16;17.20;99.90
51567;DHT22;37657;53.182;5.638;2023-07-13T00:17:42;17.30;99.90
51567;DHT22;37657;53.182;5.638;2023-07-13T00:20:10;17.20;99.90
51567;DHT22;37657;53.182;5.638;2023-07-13T00:22:36;17.20;99.90
51567;DHT22;37657;53.182;5.638;2023-07-13T00:25:02;17.20;99.90
51567;DHT22;37657;53.182;5.638;2023-07-13T00:27:28;17.20;99.90
51567;DHT22;37657;53.182;5.638;2023-07-13T00:29:57;17.20;99.90
51567;DHT22;37657;53.182;5.638;2023-07-13T00:32:22;17.20;99.90
51567;DHT22;37657;53.182;5.638;2023-07-13T00:34:51;17.20;99.90
51567;DHT22;37657;53.182;5.638;2023-07-13T00:37:17;17.30;99.90
51567;DHT22;37657;53.182;5.638;2023-07-13T00:39:42;17.20;99.90
51567;DHT22;37657;53.182;5.638;2023-07-13T00:42:08;17.20;99.90
51567;DHT22;37657;53.182;5.638;2023-07-13T00:44:34;17.30;99.90
51567;DHT22;37657;53.182;5.638;2023-07-13T00:46:59;17.20;99.90
51567;DHT22;37657;53.182;5.638;2023-07-13T00:49:27;17.20;99.90
51567;DHT22;37657;53.182;5.638;2023-07-13T00:54:37;17.20;99.90
51567;DHT22;37657;53.182;5.638;2023-07-13T00:57:06;17.20;99.90
51567;DHT22;37657;53.182;5.638;2023-07-13T00:59:34;17.20;99.90
51567;DHT22;37657;53.182;5.638;2023-07-13T01:02:00;17.20;99.90
51567;DHT22;37657;53.182;5.638;2023-07-13T01:04:26;17.20;99.90
51567;DHT22;37657;53.182;5.638;2023-07-13T01:06:52;17.20;99.90
51567;DHT22;37657;53.182;5.638;2023-07-13T01:09:19;17.20;99.90
51567;DHT22;37657;53.182;5.638;2023-07-13T01:11:46;17.20;99.90
51567;DHT22;37657;53.182;5.638;2023-07-13T01:14:13;17.20;99.90
51567;DHT22;37657;53.182;5.638;2023-07-13T01:16:40;17.20;99.90
51567;DHT22;37657;53.182;5.638;2023-07-13T01:19:26;17.30;99.90
51567;DHT22;37657;53.182;5.638;2023-07-13T01:21:55;17.30;99.90
51567;DHT22;37657;53.182;5.638;2023-07-13T01:24:20;17.30;99.90
51567;DHT22;37657;53.182;5.638;2023-07-13T01:26:46;17.30;99.90
51567;DHT22;37657;53.182;5.638;2023-07-13T01:29:12;17.40;99.90
51567;DHT22;37657;53.182;5.638;2023-07-13T01:31:38;17.40;99.90
51567;DHT22;37657;53.182;5.638;2023-07-13T01:34:03;17.40;99.90
51567;DHT22;37657;53.182;5.638;2023-07-13T01:36:30;17.50;99.90
51567;DHT22;37657;53.182;5.638;2023-07-13T01:38:56;17.50;99.90
51567;DHT22;37657;53.182;5.638;2023-07-13T01:41:22;17.50;99.90
51567;DHT22;37657;53.182;5.638;2023-07-13T01:43:47;17.50;99.90
51567;DHT22;37657;53.182;5.638;2023-07-13T01:46:13;17.60;99.90
51567;DHT22;37657;53.182;5.638;2023-07-13T01:48:39;17.60;99.90
51567;DHT22;37657;53.182;5.638;2023-07-13T01:51:04;17.60;99.90
51567;DHT22;37657;53.182;5.638;2023-07-13T01:53:30;17.70;99.90
51567;DHT22;37657;53.182;5.638;2023-07-13T01:55:57;17.70;99.90
51567;DHT22;37657;53.182;5.638;2023-07-13T01:58:22;17.70;99.90
51567;DHT22;37657;53.182;5.638;2023-07-13T02:00:49;17.80;99.90
51567;DHT22;37657;53.182;5.638;2023-07-13T02:03:15;17.80;99.90
51567;DHT22;37657;53.182;5.638;2023-07-13T02:05:44;17.80;99.90
51567;DHT22;37657;53.182;5.638;2023-07-13T02:08:10;17.80;99.90
51567;DHT22;37657;53.182;5.638;2023-07-13T02:10:37;17.80;99.90
51567;DHT22;37657;53.182;5.638;2023-07-13T02:13:05;17.90;99.90
51567;DHT22;37657;53.182;5.638;2023-07-13T02:15:31;17.90;99.90
51567;DHT22;37657;53.182;5.638;2023-07-13T02:17:57;17.80;99.90
51567;DHT22;37657;53.182;5.638;2023-07-13T02:20:24;17.80;99.90
51567;DHT22;37657;53.182;5.638;2023-07-13T02:22:51;17.80;99.90
51567;DHT22;37657;53.182;5.638;2023-07-13T02:25:17;17.70;99.90
51567;DHT22;37657;53.182;5.638;2023-07-13T02:27:42;17.70;99.90
51567;DHT22;37657;53.182;5.638;2023-07-13T02:30:09;17.70;99.90
51567;DHT22;37657;53.182;5.638;2023-07-13T02:32:36;17.70;99.90
51567;DHT22;37657;53.182;5.638;2023-07-13T02:35:01;17.60;99.90
51567;DHT22;37657;53.182;5.638;2023-07-13T02:37:28;17.60;99.90
51567;DHT22;37657;53.182;5.638;2023-07-13T02:39:55;17.70;99.90
51567;DHT22;37657;53.182;5.638;2023-07-13T02:42:20;17.60;99.90
51567;DHT22;37657;53.182;5.638;2023-07-13T02:44:46;17.50;99.90
51567;DHT22;37657;53.182;5.638;2023-07-13T02:47:12;17.40;99.90
51567;DHT22;37657;53.182;5.638;2023-07-13T02:49:38;17.30;99.90
51567;DHT22;37657;53.182;5.638;2023-07-13T02:52:04;17.20;99.90
51567;DHT22;37657;53.182;5.638;2023-07-13T02:54:30;17.10;99.90
51567;DHT22;37657;53.182;5.638;2023-07-13T02:56:56;17.10;99.90
51567;DHT22;37657;53.182;5.638;2023-07-13T02:59:21;17.00;99.90
51567;DHT22;37657;53.182;5.638;2023-07-13T03:01:47;17.00;99.90
51567;DHT22;37657;53.182;5.638;2023-07-13T03:04:13;17.00;99.90
51567;DHT22;37657;53.182;5.638;2023-07-13T03:06:38;17.00;99.90
51567;DHT22;37657;53.182;5.638;2023-07-13T03:09:04;16.90;99.90
51567;DHT22;37657;53.182;5.638;2023-07-13T03:11:30;16.90;99.90
51567;DHT22;37657;53.182;5.638;2023-07-13T03:13:56;16.90;99.90
51567;DHT22;37657;53.182;5.638;2023-07-13T03:16:22;16.80;99.90
51567;DHT22;37657;53.182;5.638;2023-07-13T03:18:48;16.80;99.90
51567;DHT22;37657;53.182;5.638;2023-07-13T03:21:14;16.60;99.90
51567;DHT22;37657;53.182;5.638;2023-07-13T03:23:40;16.70;99.90
51567;DHT22;37657;53.182;5.638;2023-07-13T03:26:13;16.70;99.90
51567;DHT22;37657;53.182;5.638;2023-07-13T03:28:40;16.60;99.90
51567;DHT22;37657;53.182;5.638;2023-07-13T03:31:13;16.50;99.90
51567;DHT22;37657;53.182;5.638;2023-07-13T03:33:39;16.50;99.90
51567;DHT22;37657;53.182;5.638;2023-07-13T03:36:06;16.40;99.90
51567;DHT22;37657;53.182;5.638;2023-07-13T03:38:32;16.40;99.90
51567;DHT22;37657;53.182;5.638;2023-07-13T03:40:58;16.40;99.90
51567;DHT22;37657;53.182;5.638;2023-07-13T03:43:24;16.40;99.90
51567;DHT22;37657;53.182;5.638;2023-07-13T03:45:50;16.40;99.90
51567;DHT22;37657;53.182;5.638;2023-07-13T03:48:16;16.20;99.90
51567;DHT22;37657;53.182;5.638;2023-07-13T03:50:41;16.30;99.90
51567;DHT22;37657;53.182;5.638;2023-07-13T03:53:07;16.40;99.90
51567;DHT22;37657;53.182;5.638;2023-07-13T03:55:33;16.30;99.90
51567;DHT22;37657;53.182;5.638;2023-07-13T03:58:39;16.30;99.90
51567;DHT22;37657;53.182;5.638;2023-07-13T04:01:06;16.30;99.90
51567;DHT22;37657;53.182;5.638;2023-07-13T04:03:33;16.30;99.90
51567;DHT22;37657;53.182;5.638;2023-07-13T04:06:00;16.30;99.90
51567;DHT22;37657;53.182;5.638;2023-07-13T04:08:31;16.30;99.90
51567;DHT22;37657;53.182;5.638;2023-07-13T04:10:58;16.20;99.90
51567;DHT22;37657;53.182;5.638;2023-07-13T04:13:25;16.20;99.90
51567;DHT22;37657;53.182;5.638;2023-07-13T04:15:52;16.30;99.90
51567;DHT22;37657;53.182;5.638;2023-07-13T04:18:18;16.30;99.90
51567;DHT22;37657;53.182;5.638;2023-07-13T04:20:48;16.20;99.90
51567;DHT22;37657;53.182;5.638;2023-07-13T04:23:15;16.30;99.90
51567;DHT22;37657;53.182;5.638;2023-07-13T04:25:44;16.20;99.90
51567;DHT22;37657;53.182;5.638;2023-07-13T04:28:10;16.30;99.90
51567;DHT22;37657;53.182;5.638;2023-07-13T04:30:35;16.30;99.90
51567;DHT22;37657;53.182;5.638;2023-07-13T04:33:01;16.20;99.90
51567;DHT22;37657;53.182;5.638;2023-07-13T04:35:27;16.30;99.90
51567;DHT22;37657;53.182;5.638;2023-07-13T04:37:52;16.40;99.90
51567;DHT22;37657;53.182;5.638;2023-07-13T04:40:19;16.40;99.90
51567;DHT22;37657;53.182;5.638;2023-07-13T04:42:46;16.40;99.90
51567;DHT22;37657;53.182;5.638;2023-07-13T04:45:13;16.40;99.90
51567;DHT22;37657;53.182;5.638;2023-07-13T04:47:40;16.40;99.90
51567;DHT22;37657;53.182;5.638;2023-07-13T04:50:07;16.50;99.90
51567;DHT22;37657;53.182;5.638;2023-07-13T04:52:33;16.50;99.90
51567;DHT22;37657;53.182;5.638;2023-07-13T04:54:59;16.50;99.90
51567;DHT22;37657;53.182;5.638;2023-07-13T04:57:26;16.60;99.90
51567;DHT22;37657;53.182;5.638;2023-07-13T04:59:52;16.70;99.90
51567;DHT22;37657;53.182;5.638;2023-07-13T05:02:18;16.70;99.90
51567;DHT22;37657;53.182;5.638;2023-07-13T05:04:47;16.70;99.90
51567;DHT22;37657;53.182;5.638;2023-07-13T05:07:13;16.80;99.90
51567;DHT22;37657;53.182;5.638;2023-07-13T05:09:39;16.80;99.90
51567;DHT22;37657;53.182;5.638;2023-07-13T05:12:06;16.90;99.90
51567;DHT22;37657;53.182;5.638;2023-07-13T05:14:32;16.90;99.90
51567;DHT22;37657;53.182;5.638;2023-07-13T05:16:58;17.00;99.90
51567;DHT22;37657;53.182;5.638;2023-07-13T05:19:24;17.10;99.90
51567;DHT22;37657;53.182;5.638;2023-07-13T05:21:49;17.20;99.90
51567;DHT22;37657;53.182;5.638;2023-07-13T05:24:15;17.30;99.90
51567;DHT22;37657;53.182;5.638;2023-07-13T05:26:40;17.30;99.90
51567;DHT22;37657;53.182;5.638;2023-07-13T05:29:06;17.40;99.90
51567;DHT22;37657;53.182;5.638;2023-07-13T05:31:32;17.40;99.90
51567;DHT22;37657;53.182;5.638;2023-07-13T05:33:57;17.50;99.90
51567;DHT22;37657;53.182;5.638;2023-07-13T05:36:23;17.50;99.90
51567;DHT22;37657;53.182;5.638;2023-07-13T05:38:49;17.60;99.90
51567;DHT22;37657;53.182;5.638;2023-07-13T05:41:14;17.70;99.90
51567;DHT22;37657;53.182;5.638;2023-07-13T05:43:40;17.70;99.90
51567;DHT22;37657;53.182;5.638;2023-07-13T05:46:06;17.70;99.90
51567;DHT22;37657;53.182;5.638;2023-07-13T05:48:31;17.80;99.90
51567;DHT22;37657;53.182;5.638;2023-07-13T05:50:57;17.80;99.90
51567;DHT22;37657;53.182;5.638;2023-07-13T05:53:22;17.90;99.90
51567;DHT22;37657;53.182;5.638;2023-07-13T05:55:48;18.00;99.90
51567;DHT22;37657;53.182;5.638;2023-07-13T05:58:16;18.00;99.90
51567;DHT22;37657;53.182;5.638;2023-07-13T06:00:42;18.10;99.90
51567;DHT22;37657;53.182;5.638;2023-07-13T06:03:08;18.10;99.90
51567;DHT22;37657;53.182;5.638;2023-07-13T06:05:35;18.20;99.90
51567;DHT22;37657;53.182;5.638;2023-07-13T06:08:02;18.20;99.90
51567;DHT22;37657;53.182;5.638;2023-07-13T06:10:27;18.20;99.90
51567;DHT22;37657;53.182;5.638;2023-07-13T06:12:53;18.20;99.90
51567;DHT22;37657;53.182;5.638;2023-07-13T06:15:19;18.20;99.90
51567;DHT22;37657;53.182;5.638;2023-07-13T06:17:44;18.20;99.90
51567;DHT22;37657;53.182;5.638;2023-07-13T06:20:10;18.20;99.90
51567;DHT22;37657;53.182;5.638;2023-07-13T06:22:36;18.30;99.90
51567;DHT22;37657;53.182;5.638;2023-07-13T06:25:02;18.30;99.90
51567;DHT22;37657;53.182;5.638;2023-07-13T06:27:28;18.30;99.90
51567;DHT22;37657;53.182;5.638;2023-07-13T06:29:54;18.30;99.90
51567;DHT22;37657;53.182;5.638;2023-07-13T06:32:20;18.40;99.90
51567;DHT22;37657;53.182;5.638;2023-07-13T06:34:46;18.40;99.90
51567;DHT22;37657;53.182;5.638;2023-07-13T06:37:11;18.40;99.90
51567;DHT22;37657;53.182;5.638;2023-07-13T06:39:37;18.40;99.90
51567;DHT22;37657;53.182;5.638;2023-07-13T06:42:03;18.40;99.90
51567;DHT22;37657;53.182;5.638;2023-07-13T06:44:29;18.50;99.90
51567;DHT22;37657;53.182;5.638;2023-07-13T06:46:54;18.60;99.90
51567;DHT22;37657;53.182;5.638;2023-07-13T06:49:20;18.60;99.90
51567;DHT22;37657;53.182;5.638;2023-07-13T06:51:46;18.70;99.90
51567;DHT22;37657;53.182;5.638;2023-07-13T06:54:11;18.80;99.90
51567;DHT22;37657;53.182;5.638;2023-07-13T06:56:37;18.70;99.90
51567;DHT22;37657;53.182;5.638;2023-07-13T06:59:02;18.80;99.90
51567;DHT22;37657;53.182;5.638;2023-07-13T07:01:28;18.80;99.90
51567;DHT22;37657;53.182;5.638;2023-07-13T07:03:54;18.80;99.90
51567;DHT22;37657;53.182;5.638;2023-07-13T07:06:21;18.70;99.90
51567;DHT22;37657;53.182;5.638;2023-07-13T07:08:51;18.60;99.90
51567;DHT22;37657;53.182;5.638;2023-07-13T07:11:22;18.60;99.90
51567;DHT22;37657;53.182;5.638;2023-07-13T07:13:49;18.60;99.90
51567;DHT22;37657;53.182;5.638;2023-07-13T07:16:15;18.50;99.90
51567;DHT22;37657;53.182;5.638;2023-07-13T07:18:41;18.50;99.90
51567;DHT22;37657;53.182;5.638;2023-07-13T07:21:07;18.50;99.90
51567;DHT22;37657;53.182;5.638;2023-07-13T07:23:32;18.60;99.90
51567;DHT22;37657;53.182;5.638;2023-07-13T07:25:58;18.70;99.90
51567;DHT22;37657;53.182;5.638;2023-07-13T07:28:24;18.70;99.90
51567;DHT22;37657;53.182;5.638;2023-07-13T07:30:53;18.80;99.90
51567;DHT22;37657;53.182;5.638;2023-07-13T07:33:18;18.80;99.90
51567;DHT22;37657;53.182;5.638;2023-07-13T07:35:44;18.70;99.90
51567;DHT22;37657;53.182;5.638;2023-07-13T07:38:10;18.80;99.90
51567;DHT22;37657;53.182;5.638;2023-07-13T07:40:40;18.80;99.90
51567;DHT22;37657;53.182;5.638;2023-07-13T07:43:10;19.00;99.90
51567;DHT22;37657;53.182;5.638;2023-07-13T07:45:37;19.10;99.90
51567;DHT22;37657;53.182;5.638;2023-07-13T07:48:04;19.10;99.90
51567;DHT22;37657;53.182;5.638;2023-07-13T07:50:31;19.20;99.90
51567;DHT22;37657;53.182;5.638;2023-07-13T07:52:56;19.30;99.90
51567;DHT22;37657;53.182;5.638;2023-07-13T07:55:22;19.30;99.90
51567;DHT22;37657;53.182;5.638;2023-07-13T07:57:49;19.30;99.90
51567;DHT22;37657;53.182;5.638;2023-07-13T08:00:15;19.30;99.90
51567;DHT22;37657;53.182;5.638;2023-07-13T08:02:41;19.40;99.90
51567;DHT22;37657;53.182;5.638;2023-07-13T08:05:08;19.50;99.90
51567;DHT22;37657;53.182;5.638;2023-07-13T08:07:34;19.60;99.90
51567;DHT22;37657;53.182;5.638;2023-07-13T08:09:59;19.70;99.90
51567;DHT22;37657;53.182;5.638;2023-07-13T08:12:25;19.80;99.90
51567;DHT22;37657;53.182;5.638;2023-07-13T08:14:51;19.80;99.90
51567;DHT22;37657;53.182;5.638;2023-07-13T08:17:23;19.90;99.90
51567;DHT22;37657;53.182;5.638;2023-07-13T08:19:49;19.90;99.90
51567;DHT22;37657;53.182;5.638;2023-07-13T08:22:15;20.00;99.90
51567;DHT22;37657;53.182;5.638;2023-07-13T08:24:41;20.10;99.90
51567;DHT22;37657;53.182;5.638;2023-07-13T08:27:08;20.10;99.90
51567;DHT22;37657;53.182;5.638;2023-07-13T08:29:33;19.90;99.90
51567;DHT22;37657;53.182;5.638;2023-07-13T08:31:59;19.70;99.90
51567;DHT22;37657;53.182;5.638;2023-07-13T08:34:25;19.60;99.90
51567;DHT22;37657;53.182;5.638;2023-07-13T08:36:50;19.70;99.90
51567;DHT22;37657;53.182;5.638;2023-07-13T08:39:16;19.80;99.90
51567;DHT22;37657;53.182;5.638;2023-07-13T08:41:45;19.90;99.90
51567;DHT22;37657;53.182;5.638;2023-07-13T08:44:22;19.90;99.90
51567;DHT22;37657;53.182;5.638;2023-07-13T08:46:52;19.90;99.90
51567;DHT22;37657;53.182;5.638;2023-07-13T08:49:22;19.80;99.90
51567;DHT22;37657;53.182;5.638;2023-07-13T08:51:58;19.80;99.90
51567;DHT22;37657;53.182;5.638;2023-07-13T08:57:10;20.00;99.90
51567;DHT22;37657;53.182;5.638;2023-07-13T08:59:36;19.90;99.90
51567;DHT22;37657;53.182;5.638;2023-07-13T09:05:01;19.60;99.90
51567;DHT22;37657;53.182;5.638;2023-07-13T09:10:22;19.80;99.90
51567;DHT22;37657;53.182;5.638;2023-07-13T09:13:03;20.10;99.90
51567;DHT22;37657;53.182;5.638;2023-07-13T09:15:38;20.20;99.90
51567;DHT22;37657;53.182;5.638;2023-07-13T09:20:50;20.50;99.90
51567;DHT22;37657;53.182;5.638;2023-07-13T09:23:21;20.60;99.90
51567;DHT22;37657;53.182;5.638;2023-07-13T09:25:50;20.60;99.90
51567;DHT22;37657;53.182;5.638;2023-07-13T09:28:27;20.70;99.90
51567;DHT22;37657;53.182;5.638;2023-07-13T09:31:14;20.70;99.90
51567;DHT22;37657;53.182;5.638;2023-07-13T09:33:40;20.70;99.90
51567;DHT22;37657;53.182;5.638;2023-07-13T09:36:23;20.70;99.90
51567;DHT22;37657;53.182;5.638;2023-07-13T09:39:14;20.90;99.90
51567;DHT22;37657;53.182;5.638;2023-07-13T09:44:29;21.10;99.90
51567;DHT22;37657;53.182;5.638;2023-07-13T09:46:57;21.20;99.90
51567;DHT22;37657;53.182;5.638;2023-07-13T09:49:34;21.20;99.90
51567;DHT22;37657;53.182;5.638;2023-07-13T09:52:12;21.40;99.90
51567;DHT22;37657;53.182;5.638;2023-07-13T09:54:43;21.50;99.90
51567;DHT22;37657;53.182;5.638;2023-07-13T09:57:17;21.60;99.90
51567;DHT22;37657;53.182;5.638;2023-07-13T09:59:46;21.70;99.90
51567;DHT22;37657;53.182;5.638;2023-07-13T10:05:04;21.60;99.90
51567;DHT22;37657;53.182;5.638;2023-07-13T10:07:32;21.50;99.90
51567;DHT22;37657;53.182;5.638;2023-07-13T10:10:00;21.40;99.90
51567;DHT22;37657;53.182;5.638;2023-07-13T10:12:27;21.30;99.90
51567;DHT22;37657;53.182;5.638;2023-07-13T10:14:58;21.50;99.90
51567;DHT22;37657;53.182;5.638;2023-07-13T10:17:31;21.60;99.90
51567;DHT22;37657;53.182;5.638;2023-07-13T10:20:03;21.70;99.90
51567;DHT22;37657;53.182;5.638;2023-07-13T10:22:44;21.70;99.90
51567;DHT22;37657;53.182;5.638;2023-07-13T10:25:38;21.50;99.90
51567;DHT22;37657;53.182;5.638;2023-07-13T10:28:37;21.60;99.90
51567;DHT22;37657;53.182;5.638;2023-07-13T10:31:07;21.70;99.90
51567;DHT22;37657;53.182;5.638;2023-07-13T10:33:36;21.50;99.90
51567;DHT22;37657;53.182;5.638;2023-07-13T10:36:28;21.40;99.90
51567;DHT22;37657;53.182;5.638;2023-07-13T10:38:58;21.40;99.90
51567;DHT22;37657;53.182;5.638;2023-07-13T10:41:26;21.30;99.90
51567;DHT22;37657;53.182;5.638;2023-07-13T10:43:54;21.30;99.90
51567;DHT22;37657;53.182;5.638;2023-07-13T10:46:23;21.20;99.90
51567;DHT22;37657;53.182;5.638;2023-07-13T10:49:00;21.30;99.90
51567;DHT22;37657;53.182;5.638;2023-07-13T10:51:27;21.40;99.90
51567;DHT22;37657;53.182;5.638;2023-07-13T10:54:19;21.60;99.90
51567;DHT22;37657;53.182;5.638;2023-07-13T10:56:51;21.50;99.90
51567;DHT22;37657;53.182;5.638;2023-07-13T10:59:26;21.50;99.90
51567;DHT22;37657;53.182;5.638;2023-07-13T11:01:55;21.50;99.90
51567;DHT22;37657;53.182;5.638;2023-07-13T11:04:22;21.50;99.90
51567;DHT22;37657;53.182;5.638;2023-07-13T11:06:59;21.60;99.90
51567;DHT22;37657;53.182;5.638;2023-07-13T11:09:32;21.60;99.90
51567;DHT22;37657;53.182;5.638;2023-07-13T11:12:00;21.60;99.90
51567;DHT22;37657;53.182;5.638;2023-07-13T11:14:43;21.70;99.90
51567;DHT22;37657;53.182;5.638;2023-07-13T11:17:36;21.90;99.90
51567;DHT22;37657;53.182;5.638;2023-07-13T11:22:44;22.10;99.90
51567;DHT22;37657;53.182;5.638;2023-07-13T11:25:31;22.10;99.90
51567;DHT22;37657;53.182;5.638;2023-07-13T11:30:40;22.40;99.90
51567;DHT22;37657;53.182;5.638;2023-07-13T11:33:49;22.30;99.90
51567;DHT22;37657;53.182;5.638;2023-07-13T11:36:14;22.40;99.90
51567;DHT22;37657;53.182;5.638;2023-07-13T11:38:44;22.40;99.90
51567;DHT22;37657;53.182;5.638;2023-07-13T11:41:23;22.60;99.90
51567;DHT22;37657;53.182;5.638;2023-07-13T11:43:51;22.60;99.90
51567;DHT22;37657;53.182;5.638;2023-07-13T11:46:24;22.60;99.90
51567;DHT22;37657;53.182;5.638;2023-07-13T11:48:51;22.60;99.90
51567;DHT22;37657;53.182;5.638;2023-07-13T11:51:34;22.60;99.90
51567;DHT22;37657;53.182;5.638;2023-07-13T11:56:40;22.50;99.90
51567;DHT22;37657;53.182;5.638;2023-07-13T11:59:07;22.50;99.90
51567;DHT22;37657;53.182;5.638;2023-07-13T12:01:34;22.50;99.90
51567;DHT22;37657;53.182;5.638;2023-07-13T12:04:03;22.60;99.90
51567;DHT22;37657;53.182;5.638;2023-07-13T12:06:36;22.60;99.90
51567;DHT22;37657;53.182;5.638;2023-07-13T12:09:12;22.40;99.90
51567;DHT22;37657;53.182;5.638;2023-07-13T12:11:40;22.50;99.90
51567;DHT22;37657;53.182;5.638;2023-07-13T12:14:16;22.50;99.90
51567;DHT22;37657;53.182;5.638;2023-07-13T12:16:43;22.50;99.90
51567;DHT22;37657;53.182;5.638;2023-07-13T12:19:28;22.30;99.90
51567;DHT22;37657;53.182;5.638;2023-07-13T12:21:56;21.90;99.90
51567;DHT22;37657;53.182;5.638;2023-07-13T12:24:23;21.50;99.90
51567;DHT22;37657;53.182;5.638;2023-07-13T12:27:02;21.20;99.90
51567;DHT22;37657;53.182;5.638;2023-07-13T12:29:30;21.20;99.90
51567;DHT22;37657;53.182;5.638;2023-07-13T12:31:56;21.20;99.90
51567;DHT22;37657;53.182;5.638;2023-07-13T12:34:24;21.50;99.90
51567;DHT22;37657;53.182;5.638;2023-07-13T12:37:00;21.60;99.90
51567;DHT22;37657;53.182;5.638;2023-07-13T12:39:35;21.80;99.90
51567;DHT22;37657;53.182;5.638;2023-07-13T12:42:21;21.80;99.90
51567;DHT22;37657;53.182;5.638;2023-07-13T12:45:03;21.90;99.90
51567;DHT22;37657;53.182;5.638;2023-07-13T12:47:30;21.90;99.90
51567;DHT22;37657;53.182;5.638;2023-07-13T12:49:58;22.00;99.90
51567;DHT22;37657;53.182;5.638;2023-07-13T12:52:32;21.90;99.90
51567;DHT22;37657;53.182;5.638;2023-07-13T12:55:05;21.80;99.90
51567;DHT22;37657;53.182;5.638;2023-07-13T12:57:31;21.60;99.90
51567;DHT22;37657;53.182;5.638;2023-07-13T12:59:57;21.30;99.90
51567;DHT22;37657;53.182;5.638;2023-07-13T13:02:30;21.10;99.90
51567;DHT22;37657;53.182;5.638;2023-07-13T13:05:00;21.10;99.90
51567;DHT22;37657;53.182;5.638;2023-07-13T13:07:27;21.40;99.90
51567;DHT22;37657;53.182;5.638;2023-07-13T13:09:53;21.60;99.90
51567;DHT22;37657;53.182;5.638;2023-07-13T13:12:20;21.90;99.90
51567;DHT22;37657;53.182;5.638;2023-07-13T13:14:46;22.00;99.90
51567;DHT22;37657;53.182;5.638;2023-07-13T13:17:20;22.20;99.90
51567;DHT22;37657;53.182;5.638;2023-07-13T13:19:47;22.30;99.90
51567;DHT22;37657;53.182;5.638;2023-07-13T13:22:13;22.40;99.90
51567;DHT22;37657;53.182;5.638;2023-07-13T13:24:39;22.50;99.90
51567;DHT22;37657;53.182;5.638;2023-07-13T13:27:05;22.50;99.90
51567;DHT22;37657;53.182;5.638;2023-07-13T13:29:31;22.60;99.90
51567;DHT22;37657;53.182;5.638;2023-07-13T13:31:58;22.60;99.90
51567;DHT22;37657;53.182;5.638;2023-07-13T13:34:25;22.70;99.90
51567;DHT22;37657;53.182;5.638;2023-07-13T13:36:52;22.60;99.90
51567;DHT22;37657;53.182;5.638;2023-07-13T13:41:44;22.10;99.90
51567;DHT22;37657;53.182;5.638;2023-07-13T13:44:10;21.80;99.90
51567;DHT22;37657;53.182;5.638;2023-07-13T13:46:36;21.60;99.90
51567;DHT22;37657;53.182;5.638;2023-07-13T13:49:02;21.20;99.90
51567;DHT22;37657;53.182;5.638;2023-07-13T13:51:28;21.00;99.90
51567;DHT22;37657;53.182;5.638;2023-07-13T13:53:54;20.90;99.90
51567;DHT22;37657;53.182;5.638;2023-07-13T13:56:20;20.60;99.90
51567;DHT22;37657;53.182;5.638;2023-07-13T13:58:46;20.50;99.90
51567;DHT22;37657;53.182;5.638;2023-07-13T14:01:17;20.30;99.90
51567;DHT22;37657;53.182;5.638;2023-07-13T14:03:43;20.50;99.90
51567;DHT22;37657;53.182;5.638;2023-07-13T14:06:13;20.70;99.90
51567;DHT22;37657;53.182;5.638;2023-07-13T14:08:39;20.80;99.90
51567;DHT22;37657;53.182;5.638;2023-07-13T14:11:17;21.00;99.90
51567;DHT22;37657;53.182;5.638;2023-07-13T14:13:47;21.20;99.90
51567;DHT22;37657;53.182;5.638;2023-07-13T14:16:20;21.20;99.90
51567;DHT22;37657;53.182;5.638;2023-07-13T14:18:47;21.10;99.90
51567;DHT22;37657;53.182;5.638;2023-07-13T14:21:21;21.00;99.90
51567;DHT22;37657;53.182;5.638;2023-07-13T14:23:48;21.00;99.90
51567;DHT22;37657;53.182;5.638;2023-07-13T14:26:24;20.90;99.90
51567;DHT22;37657;53.182;5.638;2023-07-13T14:28:56;20.90;99.90
51567;DHT22;37657;53.182;5.638;2023-07-13T14:31:25;21.00;99.90
51567;DHT22;37657;53.182;5.638;2023-07-13T14:33:51;21.00;99.90
51567;DHT22;37657;53.182;5.638;2023-07-13T14:36:32;21.10;99.90
51567;DHT22;37657;53.182;5.638;2023-07-13T14:38:59;21.20;99.90
51567;DHT22;37657;53.182;5.638;2023-07-13T14:41:26;21.30;99.90
51567;DHT22;37657;53.182;5.638;2023-07-13T14:43:52;21.50;99.90
51567;DHT22;37657;53.182;5.638;2023-07-13T14:48:56;21.30;99.90
51567;DHT22;37657;53.182;5.638;2023-07-13T14:51:25;21.30;99.90
51567;DHT22;37657;53.182;5.638;2023-07-13T14:53:50;21.30;99.90
51567;DHT22;37657;53.182;5.638;2023-07-13T14:56:16;21.40;99.90
51567;DHT22;37657;53.182;5.638;2023-07-13T14:58:42;21.30;99.90
51567;DHT22;37657;53.182;5.638;2023-07-13T15:01:13;21.20;99.90
51567;DHT22;37657;53.182;5.638;2023-07-13T15:03:47;21.20;99.90
51567;DHT22;37657;53.182;5.638;2023-07-13T15:06:13;21.30;99.90
51567;DHT22;37657;53.182;5.638;2023-07-13T15:08:40;21.40;99.90
51567;DHT22;37657;53.182;5.638;2023-07-13T15:11:09;21.00;99.90
51567;DHT22;37657;53.182;5.638;2023-07-13T15:13:39;20.90;99.90
51567;DHT22;37657;53.182;5.638;2023-07-13T15:16:15;20.80;99.90
51567;DHT22;37657;53.182;5.638;2023-07-13T15:18:42;20.60;99.90
51567;DHT22;37657;53.182;5.638;2023-07-13T15:21:14;20.60;99.90
51567;DHT22;37657;53.182;5.638;2023-07-13T15:23:41;20.60;99.90
51567;DHT22;37657;53.182;5.638;2023-07-13T15:26:14;20.60;99.90
51567;DHT22;37657;53.182;5.638;2023-07-13T15:28:42;20.50;99.90
51567;DHT22;37657;53.182;5.638;2023-07-13T15:31:22;20.60;99.90
51567;DHT22;37657;53.182;5.638;2023-07-13T15:33:50;20.40;99.90
51567;DHT22;37657;53.182;5.638;2023-07-13T15:36:17;20.40;99.90
51567;DHT22;37657;53.182;5.638;2023-07-13T15:38:43;20.40;99.90
51567;DHT22;37657;53.182;5.638;2023-07-13T15:41:17;20.40;99.90
51567;DHT22;37657;53.182;5.638;2023-07-13T15:43:44;20.40;99.90
51567;DHT22;37657;53.182;5.638;2023-07-13T15:46:09;20.30;99.90
51567;DHT22;37657;53.182;5.638;2023-07-13T15:48:36;20.20;99.90
51567;DHT22;37657;53.182;5.638;2023-07-13T15:51:03;20.40;99.90
51567;DHT22;37657;53.182;5.638;2023-07-13T15:53:32;20.50;99.90
51567;DHT22;37657;53.182;5.638;2023-07-13T15:55:59;20.70;99.90
51567;DHT22;37657;53.182;5.638;2023-07-13T15:58:25;20.70;99.90
51567;DHT22;37657;53.182;5.638;2023-07-13T16:00:51;20.70;99.90
51567;DHT22;37657;53.182;5.638;2023-07-13T16:03:19;20.60;99.90
51567;DHT22;37657;53.182;5.638;2023-07-13T16:05:45;20.60;99.90
51567;DHT22;37657;53.182;5.638;2023-07-13T16:08:27;20.60;99.90
51567;DHT22;37657;53.182;5.638;2023-07-13T16:10:55;20.70;99.90